Terminal Aerodrome Forecast
Issued by NWS

Home | Current Version | Previous Version | Text Only | Print | Product List | Glossary On
Versions: 1 2 3 4 5 6 7 8 9 10 11 12 13 14 15 16 17
898
FTUS42 KGSP 240531
TAFAND
TAF
KAND 240531Z 2406/2506 VRB03KT P6SM BKN080
     FM241400 22004KT P6SM FEW070
     FM241800 24006KT P6SM SCT250
     FM250100 00000KT P6SM SCT250=

USA.gov is the U.S. government's official web portal to all federal, state and local government web resources and services.